createdAt,value
2019-05-21T00:01:40.003Z,41.65
2019-05-21T00:04:08.585Z,41.18
2019-05-21T00:06:37.068Z,41.63
2019-05-21T00:09:06.097Z,42.67
2019-05-21T00:11:34.567Z,41.35
2019-05-21T00:14:03.126Z,44.95
2019-05-21T00:16:31.590Z,45.43
2019-05-21T00:19:00.102Z,41.55
2019-05-21T00:21:28.554Z,39.58
2019-05-21T00:23:57.125Z,42.67
2019-05-21T00:26:25.555Z,38.80
2019-05-21T00:29:30.635Z,41.92
2019-05-21T00:32:35.517Z,37.08
2019-05-21T00:35:44.842Z,39.30
2019-05-21T00:38:51.895Z,36.75
2019-05-21T00:41:56.304Z,38.45
2019-05-21T00:44:24.736Z,38.98
2019-05-21T00:46:53.183Z,39.45
2019-05-21T00:49:21.687Z,42.98
2019-05-21T00:51:50.137Z,39.03
2019-05-21T00:54:18.588Z,39.60
2019-05-21T00:56:47.031Z,39.18
2019-05-21T00:59:15.490Z,40.40
2019-05-21T01:01:43.965Z,41.37
2019-05-21T01:04:12.709Z,41.00
2019-05-21T01:06:42.616Z,38.70
2019-05-21T01:09:11.285Z,43.57
2019-05-21T01:11:39.750Z,39.15
2019-05-21T01:14:08.353Z,39.58
2019-05-21T01:16:36.817Z,43.58
2019-05-21T01:19:05.279Z,41.68
2019-05-21T01:21:33.777Z,42.70
2019-05-21T01:24:02.230Z,43.63
2019-05-21T01:26:30.773Z,44.77
2019-05-21T01:28:59.218Z,48.98
2019-05-21T01:31:27.720Z,50.40
2019-05-21T01:33:56.182Z,48.60
2019-05-21T01:36:24.721Z,48.98
2019-05-21T01:38:53.344Z,49.30
2019-05-21T01:41:23.337Z,49.38
2019-05-21T01:43:51.786Z,50.30
2019-05-21T01:46:20.276Z,46.08
2019-05-21T01:48:48.766Z,42.15
2019-05-21T01:51:17.261Z,41.37
2019-05-21T01:53:45.734Z,41.28
2019-05-21T01:56:16.007Z,37.65
2019-05-21T01:58:44.449Z,36.42
2019-05-21T02:01:12.780Z,37.23
2019-05-21T02:03:41.224Z,39.98
2019-05-21T02:06:10.003Z,32.88
2019-05-21T02:08:38.642Z,31.48
2019-05-21T02:11:07.082Z,30.72
2019-05-21T02:13:35.552Z,28.47
2019-05-21T02:16:04.030Z,29.05
2019-05-21T02:18:32.567Z,29.12
2019-05-21T02:21:00.987Z,30.20
2019-05-21T02:23:29.434Z,30.43
2019-05-21T02:25:57.878Z,28.15
2019-05-21T02:28:26.427Z,29.55
2019-05-21T02:30:56.588Z,29.55
2019-05-21T02:33:25.043Z,31.35
2019-05-21T02:35:55.038Z,31.20
2019-05-21T02:38:23.694Z,31.20
2019-05-21T02:40:52.305Z,33.33
2019-05-21T02:43:20.745Z,34.70
2019-05-21T02:45:49.210Z,35.98
2019-05-21T02:48:17.666Z,35.20
2019-05-21T02:50:46.113Z,39.42
2019-05-21T02:53:14.638Z,37.03
2019-05-21T02:55:43.058Z,37.70
2019-05-21T02:58:11.503Z,37.10
2019-05-21T03:00:58.264Z,38.30
2019-05-21T03:03:28.432Z,39.65
2019-05-21T03:06:12.433Z,39.42
2019-05-21T03:08:27.128Z,39.40
2019-05-21T03:10:55.610Z,39.58
2019-05-21T03:13:24.100Z,42.38
2019-05-21T03:15:52.567Z,40.15
2019-05-21T03:18:21.047Z,37.35
2019-05-21T03:20:49.496Z,39.65
2019-05-21T03:23:17.940Z,42.10
2019-05-21T03:25:46.379Z,39.80
2019-05-21T03:28:14.816Z,40.20
2019-05-21T03:30:43.277Z,40.65
2019-05-21T03:33:11.793Z,42.45
2019-05-21T03:35:40.225Z,42.62
2019-05-21T03:38:08.669Z,44.15
2019-05-21T03:40:37.111Z,44.08
2019-05-21T03:43:05.538Z,45.48
2019-05-21T03:45:33.988Z,46.08
2019-05-21T03:48:04.061Z,46.35
2019-05-21T03:50:32.492Z,51.60
2019-05-21T03:53:00.917Z,51.55
2019-05-21T03:55:29.394Z,50.35
2019-05-21T03:57:57.818Z,51.53
2019-05-21T04:00:27.799Z,52.05
2019-05-21T04:02:56.244Z,50.63
2019-05-21T04:05:25.660Z,50.70
2019-05-21T04:07:54.118Z,53.15
2019-05-21T04:10:24.082Z,53.68
2019-05-21T04:13:07.779Z,55.23
2019-05-21T04:15:40.072Z,54.25
2019-05-21T04:18:12.886Z,56.02
2019-05-21T04:20:41.347Z,56.18
2019-05-21T04:23:09.799Z,52.08
2019-05-21T04:25:38.265Z,53.85
2019-05-21T04:28:06.685Z,55.85
2019-05-21T04:30:35.153Z,57.58
2019-05-21T04:33:03.627Z,58.87
2019-05-21T04:35:32.134Z,64.80
2019-05-21T04:38:00.564Z,63.35
2019-05-21T04:40:29.097Z,64.60
2019-05-21T04:43:01.853Z,64.90
2019-05-21T04:45:29.473Z,64.58
2019-05-21T04:47:57.888Z,65.70
2019-05-21T04:50:26.355Z,65.70
2019-05-21T04:52:54.858Z,65.97
2019-05-21T04:55:23.363Z,66.25
2019-05-21T04:57:51.824Z,67.27
2019-05-21T05:00:20.299Z,67.90
2019-05-21T05:02:48.781Z,66.95
2019-05-21T05:05:17.389Z,67.20
2019-05-21T05:07:45.881Z,67.32
2019-05-21T05:10:19.017Z,68.45
2019-05-21T05:12:49.014Z,64.27
2019-05-21T05:15:17.546Z,65.00
2019-05-21T05:17:46.082Z,68.55
2019-05-21T05:20:14.693Z,63.15
2019-05-21T05:22:46.477Z,64.10
2019-05-21T05:25:15.177Z,60.70
2019-05-21T05:27:43.675Z,64.72
2019-05-21T05:30:12.409Z,59.55
2019-05-21T05:32:40.928Z,61.13
2019-05-21T05:35:09.632Z,60.90
2019-05-21T05:37:43.909Z,60.48
2019-05-21T05:40:09.139Z,62.10
2019-05-21T05:42:40.245Z,61.73
2019-05-21T05:45:09.636Z,62.30
2019-05-21T05:47:38.202Z,60.17
2019-05-21T05:50:11.914Z,60.28
2019-05-21T05:52:40.389Z,60.92
2019-05-21T05:55:09.122Z,64.22
2019-05-21T05:57:37.646Z,60.75
2019-05-21T06:00:08.893Z,59.55
2019-05-21T06:02:37.368Z,57.85
2019-05-21T06:05:07.366Z,57.00
2019-05-21T06:07:35.895Z,63.73
2019-05-21T06:10:06.007Z,57.83
2019-05-21T06:12:34.703Z,52.50
2019-05-21T06:15:03.453Z,55.33
2019-05-21T06:17:31.911Z,57.10
2019-05-21T06:20:00.376Z,53.02
2019-05-21T06:22:29.003Z,57.67
2019-05-21T06:24:57.624Z,56.73
2019-05-21T06:27:26.087Z,52.98
2019-05-21T06:29:54.552Z,52.38
2019-05-21T06:32:23.054Z,53.17
2019-05-21T06:34:51.554Z,53.38
2019-05-21T06:37:20.078Z,53.13
2019-05-21T06:39:48.581Z,50.45
2019-05-21T06:42:17.064Z,54.30
2019-05-21T06:44:45.527Z,51.50
2019-05-21T06:47:13.948Z,52.85
2019-05-21T06:49:42.507Z,54.23
2019-05-21T06:52:10.979Z,53.15
2019-05-21T06:54:39.470Z,51.23
2019-05-21T06:57:07.970Z,46.05
2019-05-21T06:59:36.498Z,45.95
2019-05-21T07:02:05.013Z,46.37
2019-05-21T07:04:33.464Z,44.40
2019-05-21T07:07:01.926Z,42.73
2019-05-21T07:09:30.400Z,42.65
2019-05-21T07:11:58.846Z,41.77
2019-05-21T07:14:28.883Z,47.85
2019-05-21T07:16:57.374Z,43.38
2019-05-21T07:19:25.825Z,44.90
2019-05-21T07:21:54.321Z,44.50
2019-05-21T07:24:22.770Z,46.00
2019-05-21T07:26:51.249Z,44.25
2019-05-21T07:29:19.702Z,43.25
2019-05-21T07:31:48.960Z,41.60
2019-05-21T07:34:17.626Z,43.28
2019-05-21T07:36:46.069Z,45.50
2019-05-21T07:39:14.556Z,39.08
2019-05-21T07:41:44.577Z,40.03
2019-05-21T07:44:13.051Z,41.65
2019-05-21T07:46:44.097Z,39.58
2019-05-21T07:49:14.147Z,42.45
2019-05-21T07:51:45.000Z,43.40
2019-05-21T07:56:50.973Z,43.45
2019-05-21T07:59:19.642Z,43.05
2019-05-21T08:01:49.112Z,41.60
2019-05-21T08:04:21.967Z,41.70
2019-05-21T08:07:00.710Z,37.28
2019-05-21T08:09:30.396Z,38.55
2019-05-21T08:15:02.754Z,36.38
2019-05-21T08:17:34.364Z,46.48
2019-05-21T08:20:09.879Z,32.58
2019-05-21T08:22:41.103Z,31.05
2019-05-21T08:25:15.438Z,31.15
2019-05-21T08:27:44.846Z,30.90
2019-05-21T08:30:21.450Z,30.97
2019-05-21T08:32:51.958Z,29.77
2019-05-21T08:35:19.847Z,30.82
2019-05-21T08:37:48.350Z,29.50
2019-05-21T08:40:17.037Z,31.62
2019-05-21T08:42:47.056Z,29.57
2019-05-21T08:45:16.190Z,24.85
2019-05-21T08:47:44.712Z,26.05
2019-05-21T08:50:13.728Z,26.10
2019-05-21T08:52:42.209Z,24.55
2019-05-21T08:55:12.435Z,39.95
2019-05-21T08:57:41.124Z,23.57
2019-05-21T09:00:14.045Z,21.02
2019-05-21T09:02:42.523Z,22.20
2019-05-21T09:05:12.123Z,20.77
2019-05-21T09:07:40.599Z,19.37
2019-05-21T09:10:09.697Z,19.48
2019-05-21T09:12:39.820Z,18.70
2019-05-21T09:15:09.108Z,15.55
2019-05-21T09:17:37.635Z,17.77
2019-05-21T09:20:08.248Z,18.92
2019-05-21T09:22:36.715Z,16.95
2019-05-21T09:25:30.288Z,18.50
2019-05-21T09:27:58.861Z,17.10
2019-05-21T09:30:27.469Z,19.82
2019-05-21T09:32:55.999Z,18.52
2019-05-21T09:35:28.179Z,20.12
2019-05-21T09:37:56.800Z,18.92
2019-05-21T09:40:35.772Z,19.70
2019-05-21T09:43:04.326Z,19.42
2019-05-21T09:45:32.734Z,20.52
2019-05-21T09:48:01.400Z,21.97
2019-05-21T09:50:34.198Z,19.12
2019-05-21T09:53:02.937Z,19.87
2019-05-21T09:55:33.556Z,21.33
2019-05-21T09:58:12.342Z,22.22
2019-05-21T10:00:54.502Z,22.62
2019-05-21T10:03:39.995Z,22.90
2019-05-21T10:06:08.522Z,21.42
2019-05-21T10:08:37.351Z,20.72
2019-05-21T10:11:05.859Z,19.15
2019-05-21T10:13:34.727Z,20.90
2019-05-21T10:16:03.316Z,21.45
2019-05-21T10:18:36.079Z,20.32
2019-05-21T10:21:04.643Z,21.70
2019-05-21T10:23:34.839Z,22.05
2019-05-21T10:26:06.396Z,22.77
2019-05-21T10:28:37.114Z,20.00
2019-05-21T10:31:05.586Z,20.70
2019-05-21T10:33:35.872Z,18.55
2019-05-21T10:36:07.690Z,20.62
2019-05-21T10:38:36.282Z,20.05
2019-05-21T10:41:05.096Z,22.30
2019-05-21T10:43:33.652Z,21.02
2019-05-21T10:46:09.846Z,21.50
2019-05-21T10:48:43.006Z,22.98
2019-05-21T10:51:11.653Z,20.17
2019-05-21T10:53:40.198Z,22.05
2019-05-21T10:56:08.798Z,22.30
2019-05-21T10:58:37.270Z,19.57
2019-05-21T11:01:10.449Z,19.42
2019-05-21T11:03:46.061Z,20.17
2019-05-21T11:06:16.264Z,19.42
2019-05-21T11:08:44.816Z,20.77
2019-05-21T11:11:14.814Z,18.75
2019-05-21T11:13:43.339Z,19.10
2019-05-21T11:16:11.932Z,20.82
2019-05-21T11:18:40.398Z,18.95
2019-05-21T11:21:10.460Z,19.67
2019-05-21T11:23:38.954Z,18.85
2019-05-21T11:26:07.477Z,18.48
2019-05-21T11:28:35.936Z,21.05
2019-05-21T11:31:04.529Z,19.15
2019-05-21T11:33:32.976Z,20.55
2019-05-21T11:36:01.459Z,18.65
2019-05-21T11:38:39.456Z,20.62
2019-05-21T11:41:01.738Z,19.70
2019-05-21T11:43:30.257Z,19.77
2019-05-21T11:45:58.814Z,20.15
2019-05-21T11:48:27.371Z,17.37
2019-05-21T11:50:55.794Z,18.95
2019-05-21T11:53:24.346Z,18.00
2019-05-21T11:55:52.794Z,16.70
2019-05-21T11:58:21.230Z,16.12
2019-05-21T12:00:49.921Z,17.80
2019-05-21T12:03:18.449Z,16.87
2019-05-21T12:05:46.924Z,18.52
2019-05-21T12:08:15.369Z,15.40
2019-05-21T12:10:45.775Z,14.83
2019-05-21T12:13:20.225Z,15.80
2019-05-21T12:15:47.163Z,14.03
2019-05-21T12:18:15.611Z,15.72
2019-05-21T12:20:45.040Z,14.78
2019-05-21T12:23:13.523Z,18.30
2019-05-21T12:25:42.117Z,17.42
2019-05-21T12:28:11.442Z,17.17
2019-05-21T12:30:40.190Z,16.52
2019-05-21T12:33:08.659Z,14.63
2019-05-21T12:35:37.122Z,14.53
2019-05-21T12:38:05.622Z,15.30
2019-05-21T12:40:34.142Z,16.93
2019-05-21T12:43:02.585Z,16.97
2019-05-21T12:45:31.043Z,17.82
2019-05-21T12:47:59.644Z,16.75
2019-05-21T12:50:28.273Z,14.20
2019-05-21T12:52:56.718Z,14.45
2019-05-21T12:55:26.858Z,16.30
2019-05-21T12:57:55.227Z,14.28
2019-05-21T13:00:25.275Z,12.05
2019-05-21T13:02:53.808Z,13.18
2019-05-21T13:05:22.573Z,13.03
2019-05-21T13:07:51.008Z,12.20
2019-05-21T13:10:19.507Z,14.10
2019-05-21T13:12:48.028Z,15.35
2019-05-21T13:15:16.584Z,13.78
2019-05-21T13:17:45.184Z,12.82
2019-05-21T13:20:16.015Z,15.78
2019-05-21T13:25:13.354Z,12.43
2019-05-21T13:27:42.209Z,13.18
2019-05-21T13:30:15.810Z,16.30
2019-05-21T13:32:44.308Z,16.73
2019-05-21T13:35:13.183Z,15.40
2019-05-21T13:37:46.764Z,13.90
2019-05-21T13:40:15.813Z,14.50
2019-05-21T13:42:44.307Z,15.93
2019-05-21T13:45:14.997Z,16.70
2019-05-21T13:47:46.577Z,16.82
2019-05-21T13:50:17.831Z,18.95
2019-05-21T13:52:47.993Z,19.48
2019-05-21T13:55:16.787Z,20.05
2019-05-21T13:57:45.341Z,22.40
2019-05-21T14:00:25.446Z,24.98
2019-05-21T14:02:55.502Z,25.05
2019-05-21T14:05:24.414Z,27.25
2019-05-21T14:07:52.910Z,29.67
2019-05-21T14:10:23.108Z,32.80
2019-05-21T14:12:51.527Z,31.55
2019-05-21T14:15:20.069Z,29.65
2019-05-21T14:17:50.011Z,29.55
2019-05-21T14:20:18.686Z,29.23
2019-05-21T14:22:47.212Z,31.73
2019-05-21T14:25:18.489Z,30.90
2019-05-21T14:27:47.075Z,30.15
2019-05-21T14:30:17.338Z,30.75
2019-05-21T14:32:45.846Z,29.10
2019-05-21T14:35:14.310Z,31.52
2019-05-21T14:37:42.769Z,28.98
2019-05-21T14:40:30.367Z,30.43
2019-05-21T14:42:58.587Z,29.32
2019-05-21T14:45:15.850Z,28.42
2019-05-21T14:47:45.511Z,30.82
2019-05-21T14:50:14.143Z,29.80
2019-05-21T14:52:42.618Z,30.62
2019-05-21T14:55:12.204Z,31.23
2019-05-21T14:57:40.655Z,26.30
2019-05-21T15:00:17.584Z,29.55
2019-05-21T15:02:46.171Z,29.30
2019-05-21T15:05:14.887Z,29.27
2019-05-21T15:07:43.372Z,28.70
2019-05-21T15:10:13.528Z,28.92
2019-05-21T15:12:46.359Z,31.40
2019-05-21T15:15:17.684Z,28.17
2019-05-21T15:17:47.772Z,30.60
2019-05-21T15:20:18.884Z,27.52
2019-05-21T15:22:47.396Z,25.15
2019-05-21T15:25:15.924Z,26.57
2019-05-21T15:27:44.493Z,26.90
2019-05-21T15:30:13.507Z,25.90
2019-05-21T15:32:42.026Z,20.85
2019-05-21T15:35:10.595Z,21.37
2019-05-21T15:37:39.743Z,18.82
2019-05-21T15:40:08.698Z,17.00
2019-05-21T15:42:38.955Z,17.92
2019-05-21T15:45:07.773Z,15.23
2019-05-21T15:47:36.364Z,18.05
2019-05-21T15:50:05.510Z,16.12
2019-05-21T15:52:35.420Z,15.32
2019-05-21T15:55:07.299Z,17.20
2019-05-21T15:57:36.142Z,16.23
2019-05-21T16:00:07.583Z,16.45
2019-05-21T16:02:45.093Z,16.50
2019-05-21T16:05:14.477Z,17.40
2019-05-21T16:07:43.028Z,17.05
2019-05-21T16:10:11.947Z,16.82
2019-05-21T16:12:40.449Z,16.85
2019-05-21T16:15:11.973Z,16.17
2019-05-21T16:17:40.508Z,17.95
2019-05-21T16:20:11.541Z,17.25
2019-05-21T16:22:44.055Z,16.25
2019-05-21T16:25:17.463Z,16.90
2019-05-21T16:27:48.570Z,18.50
2019-05-21T16:30:18.619Z,18.05
2019-05-21T16:32:47.627Z,21.25
2019-05-21T16:35:16.579Z,19.32
2019-05-21T16:37:45.119Z,18.70
2019-05-21T16:40:17.013Z,19.02
2019-05-21T16:42:45.700Z,20.77
2019-05-21T16:45:14.397Z,20.62
2019-05-21T16:47:46.080Z,20.85
2019-05-21T16:50:15.993Z,22.22
2019-05-21T16:52:44.588Z,23.52
2019-05-21T16:55:13.970Z,20.57
2019-05-21T16:57:45.788Z,20.32
2019-05-21T17:00:16.097Z,21.25
2019-05-21T17:02:49.735Z,21.48
2019-05-21T17:05:18.768Z,22.98
2019-05-21T17:07:47.366Z,22.05
2019-05-21T17:10:16.977Z,22.87
2019-05-21T17:12:48.545Z,22.65
2019-05-21T17:15:19.314Z,23.98
2019-05-21T17:17:51.814Z,23.92
2019-05-21T17:20:20.952Z,20.02
2019-05-21T17:22:49.492Z,19.27
2019-05-21T17:25:19.642Z,19.15
2019-05-21T17:27:49.726Z,18.98
2019-05-21T17:30:20.070Z,17.82
2019-05-21T17:32:57.444Z,16.10
2019-05-21T17:35:28.749Z,16.85
2019-05-21T17:37:59.910Z,18.50
2019-05-21T17:40:28.521Z,18.70
2019-05-21T17:42:59.980Z,17.07
2019-05-21T17:45:29.902Z,19.42
2019-05-21T17:47:58.383Z,21.40
2019-05-21T17:50:28.491Z,22.05
2019-05-21T17:52:56.997Z,20.95
2019-05-21T17:55:27.517Z,17.95
2019-05-21T17:57:56.111Z,18.62
2019-05-21T18:00:27.846Z,17.23
2019-05-21T18:03:01.108Z,17.20
2019-05-21T18:05:30.228Z,15.40
2019-05-21T18:08:00.299Z,15.78
2019-05-21T18:10:29.189Z,15.15
2019-05-21T18:12:59.259Z,13.93
2019-05-21T18:15:32.513Z,14.98
2019-05-21T18:18:02.612Z,15.40
2019-05-21T18:20:33.570Z,15.58
2019-05-21T18:23:09.322Z,13.78
2019-05-21T18:25:39.076Z,12.98
2019-05-21T18:28:07.713Z,14.18
2019-05-21T18:30:36.477Z,16.27
2019-05-21T18:33:08.904Z,16.30
2019-05-21T18:35:37.352Z,16.80
2019-05-21T18:38:09.285Z,18.23
2019-05-21T18:40:39.334Z,20.48
2019-05-21T18:43:07.995Z,20.48
2019-05-21T18:45:39.874Z,21.75
2019-05-21T18:48:08.733Z,22.27
2019-05-21T18:50:38.771Z,22.48
2019-05-21T18:53:08.119Z,22.80
2019-05-21T18:55:38.177Z,23.70
2019-05-21T18:58:07.813Z,24.07
2019-05-21T19:00:39.146Z,23.98
2019-05-21T19:03:10.410Z,23.73
2019-05-21T19:05:38.949Z,23.90
2019-05-21T19:08:07.579Z,23.92
2019-05-21T19:10:36.185Z,23.92
2019-05-21T19:13:06.246Z,25.10
2019-05-21T19:15:40.971Z,26.17
2019-05-21T19:18:09.389Z,25.32
2019-05-21T19:20:39.421Z,24.70
2019-05-21T19:23:09.457Z,24.82
2019-05-21T19:25:39.467Z,23.67
2019-05-21T19:28:08.006Z,24.63
2019-05-21T19:30:38.171Z,25.35
2019-05-21T19:33:06.790Z,25.10
2019-05-21T19:35:35.317Z,26.05
2019-05-21T19:38:07.110Z,25.12
2019-05-21T19:40:35.579Z,24.60
2019-05-21T19:43:04.095Z,24.05
2019-05-21T19:45:34.186Z,24.18
2019-05-21T19:48:02.686Z,24.15
2019-05-21T19:50:31.232Z,23.10
2019-05-21T19:52:59.733Z,23.98
2019-05-21T19:55:29.608Z,24.12
2019-05-21T19:57:58.139Z,22.67
2019-05-21T20:00:29.265Z,24.05
2019-05-21T20:02:59.314Z,23.65
2019-05-21T20:05:28.203Z,24.40
2019-05-21T20:07:56.703Z,25.40
2019-05-21T20:10:25.217Z,24.90
2019-05-21T20:12:53.884Z,25.02
2019-05-21T20:15:22.375Z,24.40
2019-05-21T20:18:06.240Z,24.07
2019-05-21T20:20:23.037Z,24.77
2019-05-21T20:22:54.085Z,26.07
2019-05-21T20:25:23.432Z,27.85
2019-05-21T20:27:55.790Z,25.62
2019-05-21T20:30:24.950Z,25.27
2019-05-21T20:32:54.280Z,25.43
2019-05-21T20:35:25.627Z,26.65
2019-05-21T20:37:59.391Z,25.48
2019-05-21T20:40:25.693Z,26.07
2019-05-21T20:42:54.616Z,26.33
2019-05-21T20:45:23.213Z,26.07
2019-05-21T20:47:53.350Z,26.00
2019-05-21T20:50:24.256Z,29.20
2019-05-21T20:55:22.281Z,26.48
2019-05-21T20:57:50.858Z,26.90
2019-05-21T21:00:23.939Z,28.05
2019-05-21T21:02:53.087Z,27.37
2019-05-21T21:05:21.783Z,28.50
2019-05-21T21:07:53.762Z,29.25
2019-05-21T21:10:22.433Z,30.32
2019-05-21T21:12:51.229Z,29.60
2019-05-21T21:15:20.294Z,29.60
2019-05-21T21:18:06.788Z,30.85
2019-05-21T21:20:36.980Z,29.57
2019-05-21T21:23:10.803Z,30.30
2019-05-21T21:25:45.674Z,29.15
2019-05-21T21:28:20.414Z,28.80
2019-05-21T21:30:49.084Z,31.15
2019-05-21T21:33:41.959Z,31.55
2019-05-21T21:35:58.513Z,30.45
2019-05-21T21:38:33.313Z,30.17
2019-05-21T21:41:02.589Z,29.18
2019-05-21T21:43:31.224Z,31.65
2019-05-21T21:45:59.935Z,31.97
2019-05-21T21:48:34.342Z,32.83
2019-05-21T21:51:07.395Z,29.87
2019-05-21T21:53:37.016Z,30.02
2019-05-21T21:56:05.545Z,32.17
2019-05-21T21:58:34.061Z,33.05
2019-05-21T22:01:07.235Z,31.30
2019-05-21T22:03:37.576Z,30.95
2019-05-21T22:06:10.044Z,32.40
2019-05-21T22:08:39.012Z,32.63
2019-05-21T22:11:11.984Z,31.30
2019-05-21T22:13:40.936Z,30.77
2019-05-21T22:16:09.566Z,33.33
2019-05-21T22:18:38.419Z,31.40
2019-05-21T22:21:07.603Z,31.55
2019-05-21T22:23:36.345Z,33.35
2019-05-21T22:26:04.947Z,34.65
2019-05-21T22:28:33.404Z,33.53
2019-05-21T22:31:01.998Z,33.02
2019-05-21T22:33:30.618Z,33.33
2019-05-21T22:36:03.485Z,33.50
2019-05-21T22:38:32.484Z,34.43
2019-05-21T22:41:00.970Z,35.48
2019-05-21T22:43:30.413Z,35.28
2019-05-21T22:45:58.873Z,36.23
2019-05-21T22:48:27.433Z,36.23
2019-05-21T22:50:56.022Z,35.90
2019-05-21T22:53:24.714Z,36.13
2019-05-21T22:55:53.495Z,35.70
2019-05-21T22:58:22.015Z,36.60
2019-05-21T23:00:53.205Z,37.60
2019-05-21T23:03:23.598Z,37.40
2019-05-21T23:05:52.103Z,38.33
2019-05-21T23:08:20.698Z,37.17
2019-05-21T23:10:49.399Z,37.63
2019-05-21T23:13:17.872Z,37.15
2019-05-21T23:15:47.815Z,37.63
2019-05-21T23:18:16.991Z,36.83
2019-05-21T23:20:47.447Z,38.35
2019-05-21T23:23:16.274Z,34.85
2019-05-21T23:25:47.377Z,37.40
2019-05-21T23:28:15.932Z,35.70
2019-05-21T23:30:44.403Z,34.80
2019-05-21T23:33:14.528Z,32.98
2019-05-21T23:35:44.871Z,33.78
2019-05-21T23:38:13.549Z,35.28
2019-05-21T23:40:42.392Z,33.73
2019-05-21T23:43:11.051Z,32.17
2019-05-21T23:45:39.533Z,33.95
2019-05-21T23:48:09.889Z,32.60
2019-05-21T23:50:38.470Z,31.85
2019-05-21T23:53:09.080Z,33.20
2019-05-21T23:55:38.257Z,33.10
2019-05-21T23:58:08.045Z,31.57
